createdAt,value
2023-04-22T00:00:48.423Z,47.72
2023-04-22T00:01:48.591Z,47.82
2023-04-22T00:02:48.887Z,47.82
2023-04-22T00:03:49.211Z,47.82
2023-04-22T00:04:49.326Z,47.72
2023-04-22T00:05:49.384Z,47.82
2023-04-22T00:06:49.507Z,47.85
2023-04-22T00:07:49.690Z,47.95
2023-04-22T00:08:49.876Z,48.35
2023-04-22T00:09:50.044Z,48.25
2023-04-22T00:10:50.210Z,47.75
2023-04-22T00:11:50.384Z,47.64
2023-04-22T00:12:50.556Z,47.75
2023-04-22T00:13:50.741Z,47.85
2023-04-22T00:14:50.919Z,48.05
2023-04-22T00:15:51.173Z,48.35
2023-04-22T00:16:51.249Z,48.15
2023-04-22T00:17:51.460Z,47.85
2023-04-22T00:18:51.637Z,48.46
2023-04-22T00:19:51.803Z,47.95
2023-04-22T00:20:51.969Z,47.95
2023-04-22T00:21:52.141Z,47.85
2023-04-22T00:22:52.317Z,48.35
2023-04-22T00:23:52.491Z,48.25
2023-04-22T00:24:52.673Z,48.55
2023-04-22T00:25:52.824Z,48.25
2023-04-22T00:26:52.989Z,48.55
2023-04-22T00:27:53.166Z,48.55
2023-04-22T00:28:53.345Z,48.35
2023-04-22T00:29:53.484Z,48.48
2023-04-22T00:30:53.720Z,48.58
2023-04-22T00:31:53.897Z,48.27
2023-04-22T00:32:54.012Z,48.27
2023-04-22T00:33:54.200Z,48.27
2023-04-22T00:34:54.358Z,48.48
2023-04-22T00:35:54.533Z,48.78
2023-04-22T00:36:54.704Z,48.78
2023-04-22T00:37:54.866Z,48.88
2023-04-22T00:38:55.097Z,48.78
2023-04-22T00:39:55.211Z,48.88
2023-04-22T00:40:55.384Z,49.19
2023-04-22T00:41:55.549Z,49.29
2023-04-22T00:42:55.712Z,49.08
2023-04-22T00:43:55.891Z,49.01
2023-04-22T00:44:56.062Z,49.21
2023-04-22T00:45:56.224Z,49.31
2023-04-22T00:46:56.437Z,49.62
2023-04-22T00:47:56.639Z,49.21
2023-04-22T00:48:56.769Z,49.31
2023-04-22T00:49:56.892Z,49.41
2023-04-22T00:50:57.056Z,49.31
2023-04-22T00:51:57.230Z,49.31
2023-04-22T00:52:57.407Z,49.31
2023-04-22T00:53:57.594Z,49.52
2023-04-22T00:54:57.776Z,50.12
2023-04-22T00:55:57.925Z,49.92
2023-04-22T00:56:58.103Z,49.82
2023-04-22T00:57:58.267Z,50.25
2023-04-22T00:58:58.473Z,49.95
2023-04-22T00:59:58.588Z,50.45
2023-04-22T01:00:58.830Z,50.45
2023-04-22T01:01:58.991Z,50.86
2023-04-22T01:02:59.451Z,49.95
2023-04-22T01:03:59.713Z,50.15
2023-04-22T01:04:59.465Z,49.95
2023-04-22T01:05:59.657Z,49.74
2023-04-22T01:06:59.803Z,50.04
2023-04-22T01:07:59.972Z,50.35
2023-04-22T01:09:00.214Z,49.95
2023-04-22T01:10:00.375Z,50.25
2023-04-22T01:11:00.484Z,50.04
2023-04-22T01:12:00.649Z,50.25
2023-04-22T01:13:00.820Z,50.25
2023-04-22T01:14:01.029Z,50.04
2023-04-22T01:15:03.729Z,50.07
2023-04-22T01:16:01.359Z,50.27
2023-04-22T01:17:01.605Z,50.78
2023-04-22T01:18:01.748Z,50.68
2023-04-22T01:19:01.905Z,51.18
2023-04-22T01:20:02.057Z,50.68
2023-04-22T01:21:02.234Z,51.09
2023-04-22T01:22:02.392Z,50.48
2023-04-22T01:23:02.581Z,50.48
2023-04-22T01:24:02.826Z,50.37
2023-04-22T01:25:02.914Z,50.48
2023-04-22T01:26:03.083Z,50.37
2023-04-22T01:27:03.256Z,51.01
2023-04-22T01:28:03.431Z,51.42
2023-04-22T01:29:03.611Z,51.21
2023-04-22T01:30:03.790Z,51.21
2023-04-22T01:31:03.939Z,50.90
2023-04-22T01:32:04.155Z,51.42
2023-04-22T01:33:04.301Z,51.62
2023-04-22T01:34:04.472Z,51.21
2023-04-22T01:35:04.626Z,51.31
2023-04-22T01:36:04.799Z,51.01
2023-04-22T01:37:04.964Z,50.90
2023-04-22T01:38:05.134Z,50.81
2023-04-22T01:39:05.313Z,51.01
2023-04-22T01:40:05.498Z,51.11
2023-04-22T01:41:05.654Z,50.60
2023-04-22T01:42:05.821Z,50.81
2023-04-22T01:43:06.001Z,51.31
2023-04-22T01:44:06.185Z,51.01
2023-04-22T01:45:06.353Z,51.42
2023-04-22T01:46:06.540Z,51.01
2023-04-22T01:47:06.680Z,51.92
2023-04-22T01:48:06.941Z,51.31
2023-04-22T01:49:07.033Z,51.21
2023-04-22T01:50:07.261Z,51.11
2023-04-22T01:51:07.383Z,51.01
2023-04-22T01:52:07.553Z,51.01
2023-04-22T01:53:07.727Z,51.54
2023-04-22T01:54:07.909Z,51.34
2023-04-22T01:55:08.078Z,51.23
2023-04-22T01:56:08.250Z,50.93
2023-04-22T01:57:08.417Z,51.14
2023-04-22T01:58:08.587Z,51.23
2023-04-22T01:59:08.788Z,51.23
2023-04-22T02:00:08.933Z,51.23
2023-04-22T02:01:09.140Z,51.54
2023-04-22T02:02:09.329Z,51.54
2023-04-22T02:03:09.529Z,51.95
2023-04-22T02:04:09.622Z,51.95
2023-04-22T02:05:09.841Z,52.25
2023-04-22T02:06:09.982Z,52.05
2023-04-22T02:07:10.157Z,51.75
2023-04-22T02:08:10.337Z,51.64
2023-04-22T02:09:10.505Z,51.84
2023-04-22T02:10:10.693Z,51.95
2023-04-22T02:11:10.844Z,52.05
2023-04-22T02:12:11.025Z,51.95
2023-04-22T02:13:11.186Z,51.64
2023-04-22T02:14:11.363Z,52.25
2023-04-22T02:15:11.528Z,52.28
2023-04-22T02:16:11.757Z,52.48
2023-04-22T02:17:11.880Z,52.17
2023-04-22T02:18:12.051Z,52.48
2023-04-22T02:19:12.231Z,52.08
2023-04-22T02:20:12.521Z,51.97
2023-04-22T02:21:12.579Z,52.17
2023-04-22T02:22:12.750Z,52.17
2023-04-22T02:23:12.912Z,52.17
2023-04-22T02:24:13.102Z,52.58
2023-04-22T02:25:13.261Z,52.68
2023-04-22T02:26:13.437Z,52.98
2023-04-22T02:27:13.608Z,52.98
2023-04-22T02:28:13.787Z,52.78
2023-04-22T02:29:13.961Z,53.19
2023-04-22T02:30:14.146Z,52.91
2023-04-22T02:31:14.358Z,53.11
2023-04-22T02:32:14.480Z,53.11
2023-04-22T02:33:14.658Z,52.91
2023-04-22T02:34:14.829Z,52.71
2023-04-22T02:35:14.990Z,53.22
2023-04-22T02:36:15.228Z,53.02
2023-04-22T02:37:15.333Z,53.11
2023-04-22T02:38:15.516Z,53.11
2023-04-22T02:39:15.663Z,53.32
2023-04-22T02:40:15.831Z,53.32
2023-04-22T02:41:15.995Z,52.91
2023-04-22T02:42:16.157Z,53.42
2023-04-22T02:43:16.342Z,53.75
2023-04-22T02:44:16.507Z,53.63
2023-04-22T02:45:16.703Z,54.16
2023-04-22T02:46:16.912Z,54.26
2023-04-22T02:47:17.042Z,53.96
2023-04-22T02:48:17.218Z,54.16
2023-04-22T02:49:17.390Z,54.26
2023-04-22T02:50:17.577Z,54.26
2023-04-22T02:51:17.752Z,53.65
2023-04-22T02:52:17.910Z,53.96
2023-04-22T02:53:18.087Z,54.57
2023-04-22T02:54:18.278Z,54.46
2023-04-22T02:55:18.459Z,54.77
2023-04-22T02:56:18.610Z,54.16
2023-04-22T02:57:18.778Z,53.85
2023-04-22T02:58:18.959Z,54.49
2023-04-22T02:59:19.127Z,54.08
2023-04-22T03:00:19.311Z,54.18
2023-04-22T03:01:19.571Z,54.08
2023-04-22T03:02:19.729Z,54.59
2023-04-22T03:03:20.020Z,54.18
2023-04-22T03:04:20.061Z,53.85
2023-04-22T03:05:20.211Z,53.98
2023-04-22T03:06:20.339Z,53.98
2023-04-22T03:07:20.527Z,53.98
2023-04-22T03:08:20.711Z,54.08
2023-04-22T03:09:20.867Z,54.08
2023-04-22T03:10:21.030Z,54.08
2023-04-22T03:11:21.201Z,54.08
2023-04-22T03:12:21.389Z,54.49
2023-04-22T03:13:21.535Z,54.08
2023-04-22T03:14:21.700Z,53.47
2023-04-22T03:15:22.046Z,53.67
2023-04-22T03:16:22.147Z,54.18
2023-04-22T03:17:22.321Z,54.39
2023-04-22T03:18:22.415Z,53.88
2023-04-22T03:19:22.539Z,53.78
2023-04-22T03:20:22.721Z,54.18
2023-04-22T03:21:22.890Z,54.08
2023-04-22T03:22:23.052Z,53.67
2023-04-22T03:23:23.247Z,53.98
2023-04-22T03:24:23.449Z,54.28
2023-04-22T03:25:23.572Z,54.49
2023-04-22T03:26:23.743Z,54.39
2023-04-22T03:27:23.933Z,54.28
2023-04-22T03:28:24.103Z,54.28
2023-04-22T03:29:24.268Z,54.49
2023-04-22T03:30:24.442Z,54.28
2023-04-22T03:31:24.666Z,54.18
2023-04-22T03:32:24.922Z,54.51
2023-04-22T03:33:24.999Z,54.21
2023-04-22T03:34:25.180Z,54.31
2023-04-22T03:35:25.362Z,54.51
2023-04-22T03:36:25.510Z,54.51
2023-04-22T03:37:25.667Z,54.92
2023-04-22T03:38:25.867Z,55.02
2023-04-22T03:39:26.021Z,54.82
2023-04-22T03:40:26.204Z,54.51
2023-04-22T03:41:26.399Z,54.61
2023-04-22T03:42:26.621Z,54.61
2023-04-22T03:43:26.740Z,54.31
2023-04-22T03:44:26.926Z,54.61
2023-04-22T03:45:27.149Z,54.61
2023-04-22T03:46:27.348Z,55.02
2023-04-22T03:47:27.492Z,54.82
2023-04-22T03:48:27.657Z,55.02
2023-04-22T03:49:27.854Z,55.13
2023-04-22T03:50:28.008Z,55.22
2023-04-22T03:51:28.183Z,55.22
2023-04-22T03:52:28.373Z,55.13
2023-04-22T03:53:28.518Z,55.43
2023-04-22T03:54:28.695Z,55.63
2023-04-22T03:55:28.843Z,55.22
2023-04-22T03:56:29.016Z,54.92
2023-04-22T03:57:29.199Z,55.22
2023-04-22T03:58:29.343Z,55.22
2023-04-22T03:59:29.494Z,55.02
2023-04-22T04:00:29.680Z,54.85
2023-04-22T04:01:29.834Z,54.92
2023-04-22T04:02:30.123Z,55.35
2023-04-22T04:03:31.193Z,55.35
2023-04-22T04:04:30.763Z,55.26
2023-04-22T04:05:30.750Z,55.46
2023-04-22T04:06:30.667Z,55.05
2023-04-22T04:07:30.852Z,55.05
2023-04-22T04:08:31.031Z,55.05
2023-04-22T04:09:31.218Z,55.26
2023-04-22T04:10:31.387Z,55.56
2023-04-22T04:11:31.596Z,55.35
2023-04-22T04:12:31.725Z,55.26
2023-04-22T04:13:31.859Z,55.43
2023-04-22T04:14:32.048Z,55.13
2023-04-22T04:15:32.279Z,55.33
2023-04-22T04:16:32.438Z,55.22
2023-04-22T04:17:32.619Z,55.53
2023-04-22T04:18:32.738Z,55.53
2023-04-22T04:19:32.911Z,55.02
2023-04-22T04:20:33.085Z,55.22
2023-04-22T04:21:33.271Z,55.13
2023-04-22T04:22:33.483Z,55.22
2023-04-22T04:23:33.644Z,54.92
2023-04-22T04:24:33.831Z,55.02
2023-04-22T04:25:34.019Z,55.33
2023-04-22T04:26:34.185Z,55.20
2023-04-22T04:27:34.358Z,54.39
2023-04-22T04:28:34.547Z,54.18
2023-04-22T04:29:34.713Z,54.59
2023-04-22T04:30:34.892Z,54.66
2023-04-22T04:31:35.126Z,53.96
2023-04-22T04:32:35.305Z,54.05
2023-04-22T04:33:35.429Z,54.16
2023-04-22T04:34:35.604Z,53.96
2023-04-22T04:35:35.805Z,53.72
2023-04-22T04:36:35.967Z,54.13
2023-04-22T04:37:36.145Z,53.72
2023-04-22T04:38:36.295Z,54.03
2023-04-22T04:39:36.478Z,53.11
2023-04-22T04:40:36.637Z,53.29
2023-04-22T04:41:36.809Z,52.68
2023-04-22T04:42:37.002Z,53.17
2023-04-22T04:43:37.169Z,52.76
2023-04-22T04:44:37.348Z,52.33
2023-04-22T04:45:37.555Z,52.10
2023-04-22T04:46:37.888Z,51.46
2023-04-22T04:47:37.925Z,50.76
2023-04-22T04:48:38.041Z,50.45
2023-04-22T04:49:38.569Z,50.53
2023-04-22T04:50:38.385Z,50.02
2023-04-22T04:51:38.565Z,49.31
2023-04-22T04:52:38.754Z,50.02
2023-04-22T04:53:38.923Z,49.29
2023-04-22T04:54:39.108Z,49.16
2023-04-22T04:55:39.301Z,48.76
2023-04-22T04:56:39.484Z,48.43
2023-04-22T04:57:39.674Z,49.02
2023-04-22T04:58:39.826Z,48.28
2023-04-22T04:59:40.391Z,48.39
2023-04-22T05:00:40.188Z,47.15
2023-04-22T05:01:40.486Z,47.15
2023-04-22T05:02:40.690Z,46.44
2023-04-22T05:03:40.833Z,46.32
2023-04-22T05:04:40.995Z,46.62
2023-04-22T05:05:41.049Z,46.20
2023-04-22T05:06:41.229Z,45.59
2023-04-22T05:07:41.427Z,45.39
2023-04-22T05:08:41.617Z,45.16
2023-04-22T05:09:42.146Z,45.26
2023-04-22T05:10:41.957Z,45.37
2023-04-22T05:11:42.158Z,45.34
2023-04-22T05:12:42.319Z,44.34
2023-04-22T05:13:42.472Z,43.80
2023-04-22T05:14:42.630Z,43.69
2023-04-22T05:15:42.803Z,44.09
2023-04-22T05:16:43.049Z,43.06
2023-04-22T05:17:43.216Z,42.05
2023-04-22T05:18:43.325Z,42.74
2023-04-22T05:19:43.507Z,42.41
2023-04-22T05:20:43.687Z,41.20
2023-04-22T05:21:43.840Z,41.71
2023-04-22T05:22:44.016Z,41.19
2023-04-22T05:23:44.186Z,41.79
2023-04-22T05:24:44.354Z,41.06
2023-04-22T05:25:44.520Z,41.17
2023-04-22T05:26:44.694Z,40.55
2023-04-22T05:27:44.868Z,40.12
2023-04-22T05:28:45.036Z,39.90
2023-04-22T05:29:45.197Z,39.28
2023-04-22T05:30:45.403Z,38.86
2023-04-22T05:31:45.622Z,39.76
2023-04-22T05:32:45.822Z,39.34
2023-04-22T05:33:45.905Z,38.22
2023-04-22T05:34:46.061Z,36.90
2023-04-22T05:35:46.261Z,37.70
2023-04-22T05:36:46.415Z,36.88
2023-04-22T05:37:46.585Z,37.28
2023-04-22T05:38:46.777Z,37.16
2023-04-22T05:39:46.912Z,37.77
2023-04-22T05:40:47.091Z,37.16
2023-04-22T05:41:47.386Z,37.25
2023-04-22T05:42:47.415Z,36.25
2023-04-22T05:43:47.581Z,37.25
2023-04-22T05:44:47.739Z,36.73
2023-04-22T05:45:48.010Z,35.94
2023-04-22T05:46:48.088Z,36.05
2023-04-22T05:47:48.331Z,35.75
2023-04-22T05:48:48.434Z,36.15
2023-04-22T05:49:48.609Z,35.75
2023-04-22T05:50:48.798Z,36.25
2023-04-22T05:51:48.973Z,36.05
2023-04-22T05:52:49.142Z,36.26
2023-04-22T05:53:49.292Z,36.57
2023-04-22T05:54:49.455Z,36.68
2023-04-22T05:55:49.625Z,37.18
2023-04-22T05:56:49.802Z,38.00
2023-04-22T05:57:49.981Z,37.20
2023-04-22T05:58:50.169Z,37.12
2023-04-22T05:59:50.306Z,38.02
2023-04-22T06:00:50.484Z,38.22
2023-04-22T06:01:50.673Z,37.72
2023-04-22T06:02:50.961Z,37.22
2023-04-22T06:03:51.280Z,36.93
2023-04-22T06:04:51.441Z,37.74
2023-04-22T06:05:51.392Z,37.76
2023-04-22T06:06:51.528Z,37.55
2023-04-22T06:07:51.708Z,37.98
2023-04-22T06:08:51.902Z,39.38
2023-04-22T06:09:59.446Z,38.78
2023-04-22T06:10:53.245Z,38.98
2023-04-22T06:11:52.422Z,38.26
2023-04-22T06:12:52.585Z,38.06
2023-04-22T06:13:52.754Z,37.74
2023-04-22T06:14:52.923Z,37.24
2023-04-22T06:15:53.122Z,37.02
2023-04-22T06:16:53.331Z,37.12
2023-04-22T06:17:53.478Z,37.62
2023-04-22T06:18:53.606Z,38.22
2023-04-22T06:19:54.857Z,36.90
2023-04-22T06:20:53.976Z,37.00
2023-04-22T06:21:54.127Z,38.51
2023-04-22T06:22:54.302Z,36.98
2023-04-22T06:23:54.475Z,37.48
2023-04-22T06:24:54.642Z,36.36
2023-04-22T06:25:54.807Z,36.94
2023-04-22T06:26:54.995Z,35.83
2023-04-22T06:27:55.172Z,36.23
2023-04-22T06:28:55.335Z,36.03
2023-04-22T06:29:55.515Z,35.21
2023-04-22T06:30:55.672Z,34.93
2023-04-22T06:31:55.892Z,35.23
2023-04-22T06:32:56.021Z,35.83
2023-04-22T06:33:56.164Z,36.03
2023-04-22T06:34:56.321Z,35.61
2023-04-22T06:35:56.522Z,34.99
2023-04-22T06:36:56.680Z,34.48
2023-04-22T06:37:56.859Z,34.06
2023-04-22T06:38:57.028Z,33.76
2023-04-22T06:39:57.210Z,34.30
2023-04-22T06:40:57.373Z,34.30
2023-04-22T06:41:57.574Z,35.48
2023-04-22T06:42:57.726Z,35.38
2023-04-22T06:43:57.895Z,34.56
2023-04-22T06:44:58.062Z,34.34
2023-04-22T06:45:58.228Z,33.75
2023-04-22T06:46:58.547Z,35.24
2023-04-22T06:47:58.650Z,34.44
2023-04-22T06:48:58.742Z,34.75
2023-04-22T06:49:58.916Z,34.25
2023-04-22T06:50:59.076Z,34.63
2023-04-22T06:51:59.269Z,34.63
2023-04-22T06:52:59.397Z,34.31
2023-04-22T06:53:59.579Z,33.70
2023-04-22T06:54:59.738Z,33.60
2023-04-22T06:55:59.902Z,33.68
2023-04-22T06:57:00.123Z,33.98
2023-04-22T06:58:00.231Z,33.56
2023-04-22T06:59:00.396Z,34.15
2023-04-22T07:00:00.561Z,33.05
2023-04-22T07:01:00.736Z,32.74
2023-04-22T07:02:00.952Z,32.74
2023-04-22T07:03:01.132Z,31.73
2023-04-22T07:04:01.322Z,31.53
2023-04-22T07:05:01.478Z,31.13
2023-04-22T07:06:01.644Z,31.41
2023-04-22T07:07:01.817Z,31.71
2023-04-22T07:08:02.028Z,31.50
2023-04-22T07:09:02.151Z,30.90
2023-04-22T07:10:02.336Z,31.30
2023-04-22T07:11:02.526Z,31.00
2023-04-22T07:12:02.717Z,30.41
2023-04-22T07:13:02.878Z,30.62
2023-04-22T07:14:03.077Z,31.41
2023-04-22T07:15:03.258Z,31.99
2023-04-22T07:16:03.449Z,31.18
2023-04-22T07:17:03.566Z,30.47
2023-04-22T07:18:03.721Z,30.56
2023-04-22T07:19:03.882Z,29.55
2023-04-22T07:20:04.069Z,29.85
2023-04-22T07:21:04.257Z,30.04
2023-04-22T07:22:04.392Z,30.81
2023-04-22T07:23:04.572Z,29.81
2023-04-22T07:24:04.774Z,29.19
2023-04-22T07:25:04.912Z,27.89
2023-04-22T07:26:05.138Z,27.49
2023-04-22T07:27:05.271Z,28.28
2023-04-22T07:28:05.475Z,27.87
2023-04-22T07:29:05.628Z,27.07
2023-04-22T07:30:05.812Z,27.26
2023-04-22T07:31:05.983Z,26.77
2023-04-22T07:32:06.266Z,27.47
2023-04-22T07:33:06.341Z,27.25
2023-04-22T07:34:06.515Z,27.44
2023-04-22T07:35:06.669Z,27.64
2023-04-22T07:36:06.841Z,26.54
2023-04-22T07:37:07.010Z,26.72
2023-04-22T07:38:08.142Z,25.83
2023-04-22T07:39:07.321Z,26.03
2023-04-22T07:40:07.496Z,25.82
2023-04-22T07:41:07.646Z,25.92
2023-04-22T07:42:07.825Z,25.33
2023-04-22T07:43:08.022Z,25.52
2023-04-22T07:44:08.210Z,27.10
2023-04-22T07:45:08.394Z,25.72
2023-04-22T07:46:08.550Z,25.90
2023-04-22T07:47:08.761Z,25.61
2023-04-22T07:48:08.888Z,25.31
2023-04-22T07:49:09.069Z,25.22
2023-04-22T07:50:09.268Z,27.28
2023-04-22T07:51:09.429Z,26.68
2023-04-22T07:52:09.616Z,25.39
2023-04-22T07:53:09.781Z,25.08
2023-04-22T07:54:09.972Z,24.88
2023-04-22T07:55:10.156Z,24.69
2023-04-22T07:56:10.350Z,25.78
2023-04-22T07:57:10.503Z,24.90
2023-04-22T07:58:10.672Z,25.09
2023-04-22T07:59:10.850Z,25.29
2023-04-22T08:00:11.036Z,25.49
2023-04-22T08:01:11.214Z,25.68
2023-04-22T08:02:11.466Z,25.29
2023-04-22T08:03:11.722Z,25.09
2023-04-22T08:04:11.965Z,25.38
2023-04-22T08:05:11.974Z,25.18
2023-04-22T08:06:12.109Z,26.74
2023-04-22T08:07:31.748Z,26.12
2023-04-22T08:08:13.464Z,24.85
2023-04-22T08:09:12.608Z,24.54
2023-04-22T08:10:12.793Z,25.81
2023-04-22T08:11:12.979Z,25.60
2023-04-22T08:12:13.134Z,24.11
2023-04-22T08:13:13.300Z,23.72
2023-04-22T08:14:13.478Z,24.60
2023-04-22T08:15:13.628Z,25.49
2023-04-22T08:16:13.948Z,24.69
2023-04-22T08:17:14.005Z,23.31
2023-04-22T08:18:14.193Z,24.08
2023-04-22T08:19:14.393Z,23.69
2023-04-22T08:20:14.557Z,23.09
2023-04-22T08:21:14.710Z,23.88
2023-04-22T08:22:14.891Z,23.10
2023-04-22T08:23:15.074Z,23.28
2023-04-22T08:24:15.268Z,23.28
2023-04-22T08:25:15.422Z,23.48
2023-04-22T08:26:15.607Z,23.96
2023-04-22T08:27:15.774Z,23.65
2023-04-22T08:28:15.930Z,23.15
2023-04-22T08:29:16.102Z,23.05
2023-04-22T08:30:16.266Z,22.66
2023-04-22T08:31:16.453Z,23.14
2023-04-22T08:32:16.612Z,22.06
2023-04-22T08:33:16.758Z,22.35
2023-04-22T08:34:16.910Z,23.23
2023-04-22T08:35:17.078Z,22.55
2023-04-22T08:36:17.271Z,23.03
2023-04-22T08:37:17.401Z,21.86
2023-04-22T08:38:17.609Z,21.96
2023-04-22T08:39:17.736Z,22.94
2023-04-22T08:40:17.924Z,22.63
2023-04-22T08:41:18.088Z,21.66
2023-04-22T08:42:18.258Z,21.84
2023-04-22T08:43:18.427Z,21.74
2023-04-22T08:44:18.572Z,22.03
2023-04-22T08:45:18.794Z,22.50
2023-04-22T08:46:18.996Z,21.53
2023-04-22T08:47:19.110Z,21.22
2023-04-22T08:48:19.296Z,21.99
2023-04-22T08:49:19.507Z,21.22
2023-04-22T08:50:19.649Z,21.11
2023-04-22T08:51:19.806Z,21.58
2023-04-22T08:52:20.009Z,20.42
2023-04-22T08:53:20.686Z,20.90
2023-04-22T08:54:20.360Z,19.93
2023-04-22T08:55:20.561Z,20.24
2023-04-22T08:56:20.734Z,20.15
2023-04-22T08:57:20.889Z,20.83
2023-04-22T08:58:21.064Z,20.83
2023-04-22T08:59:21.222Z,21.12
2023-04-22T09:00:21.429Z,20.23
2023-04-22T09:01:21.612Z,20.91
2023-04-22T09:02:21.793Z,21.00
2023-04-22T09:03:21.986Z,20.22
2023-04-22T09:04:22.232Z,21.47
2023-04-22T09:05:22.254Z,20.09
2023-04-22T09:06:22.452Z,19.79
2023-04-22T09:07:22.624Z,20.67
2023-04-22T09:08:22.771Z,20.47
2023-04-22T09:09:22.921Z,19.30
2023-04-22T09:10:23.115Z,19.59
2023-04-22T09:11:23.318Z,19.88
2023-04-22T09:12:23.477Z,20.74
2023-04-22T09:13:23.705Z,19.47
2023-04-22T09:14:23.832Z,20.04
2023-04-22T09:15:23.984Z,20.03
2023-04-22T09:16:24.197Z,19.45
2023-04-22T09:17:24.341Z,18.57
2023-04-22T09:18:24.537Z,19.73
2023-04-22T09:19:24.698Z,18.08
2023-04-22T09:20:24.898Z,19.05
2023-04-22T09:21:25.069Z,19.23
2023-04-22T09:22:25.221Z,18.64
2023-04-22T09:23:25.388Z,17.68
2023-04-22T09:24:25.581Z,17.68
2023-04-22T09:25:25.765Z,17.00
2023-04-22T09:26:25.928Z,17.58
2023-04-22T09:27:26.085Z,18.45
2023-04-22T09:28:26.311Z,17.38
2023-04-22T09:29:26.446Z,18.25
2023-04-22T09:30:26.641Z,17.47
2023-04-22T09:31:26.862Z,17.56
2023-04-22T09:32:27.010Z,17.66
2023-04-22T09:33:27.179Z,16.79
2023-04-22T09:34:27.338Z,17.08
2023-04-22T09:35:27.497Z,16.99
2023-04-22T09:36:27.666Z,17.37
2023-04-22T09:37:36.098Z,16.90
2023-04-22T09:38:29.002Z,18.07
2023-04-22T09:39:28.170Z,17.97
2023-04-22T09:40:28.350Z,17.00
2023-04-22T09:41:28.514Z,17.01
2023-04-22T09:42:28.673Z,17.10
2023-04-22T09:43:28.841Z,17.89
2023-04-22T09:44:28.990Z,17.60
2023-04-22T09:45:29.193Z,17.97
2023-04-22T09:46:29.468Z,17.77
2023-04-22T09:47:29.566Z,17.28
2023-04-22T09:48:29.704Z,17.38
2023-04-22T09:49:29.854Z,17.28
2023-04-22T09:50:30.057Z,17.38
2023-04-22T09:51:30.224Z,16.51
2023-04-22T09:52:30.365Z,17.19
2023-04-22T09:53:30.522Z,17.19
2023-04-22T09:54:30.701Z,17.28
2023-04-22T09:55:30.872Z,17.19
2023-04-22T09:56:31.047Z,18.54
2023-04-22T09:57:31.226Z,17.57
2023-04-22T09:58:31.402Z,16.89
2023-04-22T09:59:31.569Z,17.19
2023-04-22T10:00:31.817Z,17.30
2023-04-22T10:01:31.932Z,18.36
2023-04-22T10:02:32.167Z,17.98
2023-04-22T10:03:32.340Z,19.45
2023-04-22T10:04:32.504Z,18.59
2023-04-22T10:05:32.634Z,19.58
2023-04-22T10:06:32.806Z,18.73
2023-04-22T10:07:32.991Z,19.35
2023-04-22T10:08:33.180Z,20.14
2023-04-22T10:09:33.342Z,20.76
2023-04-22T10:10:33.536Z,21.66
2023-04-22T10:11:33.696Z,21.88
2023-04-22T10:12:36.058Z,20.82
2023-04-22T10:13:34.021Z,22.81
2023-04-22T10:14:34.207Z,22.25
2023-04-22T10:15:34.404Z,23.35
2023-04-22T10:16:34.718Z,24.75
2023-04-22T10:17:34.794Z,24.29
2023-04-22T10:18:34.950Z,24.21
2023-04-22T10:19:35.161Z,25.60
2023-04-22T10:20:35.320Z,28.86
2023-04-22T10:21:35.469Z,26.51
2023-04-22T10:22:35.655Z,25.54
2023-04-22T10:23:35.825Z,24.67
2023-04-22T10:24:36.018Z,25.48
2023-04-22T10:25:36.156Z,26.18
2023-04-22T10:26:36.331Z,28.07
2023-04-22T10:27:36.513Z,25.61
2023-04-22T10:28:36.674Z,26.12
2023-04-22T10:29:36.878Z,27.02
2023-04-22T10:30:37.052Z,29.00
2023-04-22T10:31:37.209Z,29.00
2023-04-22T10:32:37.429Z,28.92
2023-04-22T10:33:37.557Z,27.43
2023-04-22T10:34:37.746Z,27.03
2023-04-22T10:35:37.946Z,26.06
2023-04-22T10:36:38.085Z,27.34
2023-04-22T10:37:38.277Z,27.34
2023-04-22T10:38:38.459Z,26.86
2023-04-22T10:39:38.972Z,28.05
2023-04-22T10:40:38.815Z,28.55
2023-04-22T10:41:39.010Z,27.06
2023-04-22T10:42:39.158Z,27.06
2023-04-22T10:43:39.347Z,28.05
2023-04-22T10:44:39.556Z,29.24
2023-04-22T10:45:39.730Z,28.35
2023-04-22T10:46:40.178Z,27.26
2023-04-22T10:47:40.106Z,27.47
2023-04-22T10:48:40.214Z,27.17
2023-04-22T10:49:40.514Z,27.27
2023-04-22T10:50:40.568Z,27.57
2023-04-22T10:51:40.833Z,28.17
2023-04-22T10:52:40.899Z,29.06
2023-04-22T10:53:41.069Z,28.06
2023-04-22T10:54:41.213Z,27.58
2023-04-22T10:55:41.415Z,29.37
2023-04-22T10:56:48.453Z,27.99
2023-04-22T10:57:42.748Z,29.28
2023-04-22T10:58:41.916Z,30.18
2023-04-22T10:59:42.089Z,32.05
2023-04-22T11:00:53.062Z,29.27
2023-04-22T11:01:43.437Z,29.57
2023-04-22T11:02:42.732Z,28.88
2023-04-22T11:03:42.835Z,29.67
2023-04-22T11:04:42.930Z,28.49
2023-04-22T11:05:43.119Z,28.99
2023-04-22T11:06:43.264Z,28.89
2023-04-22T11:07:43.463Z,28.79
2023-04-22T11:08:43.613Z,28.39
2023-04-22T11:09:43.799Z,28.59
2023-04-22T11:10:44.843Z,30.68
2023-04-22T11:11:44.166Z,29.48
2023-04-22T11:12:44.314Z,29.68
2023-04-22T11:13:44.503Z,29.68
2023-04-22T11:14:44.646Z,28.99
2023-04-22T11:15:44.856Z,28.49
2023-04-22T11:16:45.100Z,29.19
2023-04-22T11:17:45.208Z,28.79
2023-04-22T11:18:45.340Z,27.99
2023-04-22T11:19:45.523Z,28.89
2023-04-22T11:20:45.709Z,29.88
2023-04-22T11:21:45.869Z,28.39
2023-04-22T11:22:46.047Z,28.89
2023-04-22T11:23:46.213Z,28.79
2023-04-22T11:24:46.400Z,28.39
2023-04-22T11:25:46.613Z,28.19
2023-04-22T11:26:46.758Z,29.38
2023-04-22T11:27:46.928Z,28.79
2023-04-22T11:28:47.126Z,27.99
2023-04-22T11:29:47.306Z,28.69
2023-04-22T11:30:47.467Z,30.28
2023-04-22T11:31:47.728Z,27.99
2023-04-22T11:32:47.902Z,28.89
2023-04-22T11:33:50.183Z,27.99
2023-04-22T11:34:48.185Z,27.89
2023-04-22T11:35:48.399Z,31.37
2023-04-22T11:36:48.550Z,29.58
2023-04-22T11:37:48.709Z,27.99
2023-04-22T11:38:48.876Z,27.70
2023-04-22T11:40:10.254Z,28.49
2023-04-22T11:40:50.257Z,28.79
2023-04-22T11:41:49.410Z,27.80
2023-04-22T11:42:49.587Z,27.70
2023-04-22T11:43:49.755Z,27.99
2023-04-22T11:44:49.929Z,27.30
2023-04-22T11:45:50.168Z,27.99
2023-04-22T11:46:50.301Z,28.19
2023-04-22T11:47:50.533Z,29.38
2023-04-22T11:48:50.643Z,28.29
2023-04-22T11:49:50.810Z,28.89
2023-04-22T11:50:50.980Z,32.17
2023-04-22T11:51:51.136Z,28.59
2023-04-22T11:52:51.286Z,27.98
2023-04-22T11:53:51.469Z,28.59
2023-04-22T11:54:51.676Z,28.69
2023-04-22T11:55:51.823Z,27.89
2023-04-22T11:56:52.009Z,27.40
2023-04-22T11:57:52.196Z,27.68
2023-04-22T11:58:52.370Z,27.40
2023-04-22T11:59:52.544Z,27.78
2023-04-22T12:00:52.686Z,27.78
2023-04-22T12:01:52.889Z,29.77
2023-04-22T12:02:53.171Z,28.97
2023-04-22T12:03:53.324Z,28.97
2023-04-22T12:04:53.408Z,28.38
2023-04-22T12:05:53.555Z,27.70
2023-04-22T12:06:53.733Z,27.99
2023-04-22T12:07:53.876Z,27.59
2023-04-22T12:08:54.084Z,27.40
2023-04-22T12:09:54.240Z,27.58
2023-04-22T12:10:54.394Z,27.59
2023-04-22T12:11:54.581Z,27.68
2023-04-22T12:12:54.730Z,27.50
2023-04-22T12:13:54.925Z,27.48
2023-04-22T12:14:55.124Z,30.07
2023-04-22T12:15:55.280Z,29.47
2023-04-22T12:16:55.486Z,29.57
2023-04-22T12:17:55.604Z,29.67
2023-04-22T12:18:55.816Z,29.67
2023-04-22T12:19:55.947Z,28.28
2023-04-22T12:20:56.092Z,28.88
2023-04-22T12:21:56.275Z,28.88
2023-04-22T12:22:56.478Z,27.68
2023-04-22T12:23:56.621Z,28.28
2023-04-22T12:24:56.819Z,28.67
2023-04-22T12:25:56.978Z,27.98
2023-04-22T12:26:57.175Z,27.88
2023-04-22T12:27:57.349Z,27.88
2023-04-22T12:28:57.527Z,27.39
2023-04-22T12:29:57.734Z,27.98
2023-04-22T12:30:57.945Z,28.67
2023-04-22T12:31:58.061Z,29.07
2023-04-22T12:32:58.219Z,28.18
2023-04-22T12:33:58.454Z,29.96
2023-04-22T12:34:58.574Z,29.37
2023-04-22T12:35:58.757Z,29.37
2023-04-22T12:36:58.926Z,28.38
2023-04-22T12:37:59.112Z,28.08
2023-04-22T12:38:59.304Z,29.37
2023-04-22T12:39:59.506Z,28.28
2023-04-22T12:40:59.659Z,28.58
2023-04-22T12:41:59.824Z,28.97
2023-04-22T12:42:59.969Z,29.57
2023-04-22T12:44:00.164Z,27.78
2023-04-22T12:45:00.325Z,28.18
2023-04-22T12:46:00.519Z,28.97
2023-04-22T12:47:00.687Z,28.67
2023-04-22T12:48:00.849Z,29.55
2023-04-22T12:49:01.050Z,30.44
2023-04-22T12:50:01.244Z,30.35
2023-04-22T12:51:01.379Z,30.84
2023-04-22T12:52:01.564Z,29.36
2023-04-22T12:53:01.743Z,28.85
2023-04-22T12:54:01.948Z,28.56
2023-04-22T12:55:02.116Z,28.64